F/V Colombine — FVGA — position and weather

sailwx.info

Track history (hours):
 
Tides and Currents Weather Stations Pressure Air Temp Water Temp Dewpoint Dewpoint Depression Visibility Wind Speed Wind Dir Waves Ship Positions

F/V Colombine

Last reported at 2017-Sep-21 16:12 UTC. Time now 2017-Sep-22 19:14 UTC.
Position N 47°21' W 002°31'.

Length 22 m.

Type: Fishing. MMSI: 227866000.

Date/timePositionNaut miles runAvg speedWind from/ knotsBaromVisibWave heightAir tempDewpointWater temp
2017-Sep-21 16:12N 47°21' W 002°31'0 0.2
2017-Sep-21 14:04N 47°21' W 002°31'3 9.3
2017-Sep-21 13:43N 47°22' W 002°35'2 1.2
2017-Sep-21 12:18N 47°20' W 002°35'1 0.5
2017-Sep-21 10:28N 47°19' W 002°35'2 5.0
2017-Sep-21 10:00N 47°17' W 002°35'10 3.5
2017-Sep-21 07:13N 47°08' W 002°29'1 2.7
2017-Sep-21 06:45N 47°08' W 002°27'2 6.1
2017-Sep-21 06:30N 47°08' W 002°25'3 6.1
2017-Sep-21 06:00N 47°11' W 002°24'3 6.8
2017-Sep-21 05:30N 47°13' W 002°28'4 7.2
2017-Sep-21 05:00N 47°16' W 002°32'3 6.3
2017-Sep-21 04:29N 47°18' W 002°34'4 7.3
2017-Sep-21 04:00N 47°21' W 002°31'0 0.0
2017-Sep-21 03:26N 47°21' W 002°31'0 0.0
2017-Sep-21 02:49N 47°21' W 002°31'0 0.0
2017-Sep-21 02:30N 47°21' W 002°31'0 0.0
2017-Sep-21 01:54N 47°21' W 002°31'0 0.0
2017-Sep-21 01:27N 47°21' W 002°31'0 0.0
2017-Sep-21 00:57N 47°21' W 002°31'0 0.0
2017-Sep-20 19:17N 47°21' W 002°31'0 0.4
2017-Sep-20 19:00N 47°21' W 002°31'0 0.0
2017-Sep-20 18:30N 47°21' W 002°31'0 0.0
2017-Sep-20 17:59N 47°21' W 002°31'3 6.7
2017-Sep-20 17:30N 47°18' W 002°34'4 7.4
2017-Sep-20 17:00N 47°16' W 002°30'2 3.8
2017-Sep-20 16:25N 47°15' W 002°27'4 4.1
2017-Sep-20 15:26N 47°13' W 002°22'1 2.0
2017-Sep-20 14:54N 47°12' W 002°21'2 2.2
2017-Sep-20 14:00N 47°12' W 002°18'2 3.6
2017-Sep-20 13:20N 47°13' W 002°21'1 2.2
2017-Sep-20 12:59N 47°12' W 002°21'0 0.8
2017-Sep-20 12:29N 47°12' W 002°21'0 0.5
2017-Sep-20 11:59N 47°12' W 002°21'2 3.7
2017-Sep-20 11:27N 47°12' W 002°18'2 4.4
2017-Sep-20 11:00N 47°10' W 002°20'3 5.5
2017-Sep-20 10:30N 47°08' W 002°23'2 4.0
2017-Sep-20 09:59N 47°09' W 002°25'1 1.2
2017-Sep-20 09:30N 47°09' W 002°25'1 1.2
2017-Sep-20 08:53N 47°08' W 002°26'2 4.1
2017-Sep-20 08:30N 47°09' W 002°24'1 2.2
2017-Sep-20 08:01N 47°10' W 002°26'0 0.2
2017-Sep-20 07:30N 47°10' W 002°26'2 2.7
2017-Sep-20 06:48N 47°08' W 002°27'3 5.0
2017-Sep-20 06:17N 47°07' W 002°23'1 5.3
2017-Sep-20 06:00N 47°08' W 002°22'4 7.5
2017-Sep-20 05:29N 47°11' W 002°25'9 8.7
2017-Sep-20 04:28N 47°18' W 002°34'4 0.7
2017-Sep-19 22:45N 47°21' W 002°31'0 0.0
2017-Sep-19 22:19N 47°21' W 002°31'0 0.0
2017-Sep-19 21:59N 47°21' W 002°31'0 0.0
2017-Sep-19 21:09N 47°21' W 002°31'0 0.0
2017-Sep-19 20:58N 47°21' W 002°31'0 0.0
2017-Sep-19 20:29N 47°21' W 002°31'0 0.0
2017-Sep-19 19:09N 47°21' W 002°31'1 6.7
2017-Sep-19 19:00N 47°20' W 002°32'3 6.0
2017-Sep-19 18:30N 47°17' W 002°34'2 3.7
2017-Sep-19 17:57N 47°16' W 002°32'2 3.1
2017-Sep-19 17:12N 47°16' W 002°35'2 6.5
2017-Sep-19 16:56N 47°15' W 002°37'21 1.4
2017-Sep-19 01:52N 47°02' W 003°01'11 2.4
2017-Sep-18 21:30N 47°12' W 002°55'2 4.0
2017-Sep-18 20:59N 47°13' W 002°53'2 4.3
2017-Sep-18 20:30N 47°15' W 002°51'7 6.8
2017-Sep-18 19:30N 47°18' W 002°42'8 9.2
2017-Sep-18 18:38N 47°21' W 002°31'0 0.6
2017-Sep-18 18:28N 47°21' W 002°31'0 0.1
2017-Sep-18 18:00N 47°21' W 002°31'0 0.0
2017-Sep-18 16:10N 47°21' W 002°31'0 0.0
2017-Sep-18 15:51N 47°21' W 002°31'0 0.0
2017-Sep-18 15:29N 47°21' W 002°31'1 1.3
2017-Sep-18 15:00N 47°20' W 002°31'4 7.7
2017-Sep-18 14:30N 47°18' W 002°35'16 2.7
2017-Sep-18 08:43N 47°04' W 002°23'2 7.2
2017-Sep-18 08:30N 47°06' W 002°23'4 8.4
2017-Sep-18 08:00N 47°09' W 002°26'4 7.2
2017-Sep-18 07:30N 47°12' W 002°22'2 5.0
2017-Sep-18 07:00N 47°13' W 002°19'1 1.4
2017-Sep-18 06:30N 47°12' W 002°18'2 3.3
2017-Sep-18 06:00N 47°12' W 002°21'2 4.0
2017-Sep-18 05:30N 47°14' W 002°23'5 8.0
2017-Sep-18 04:52N 47°16' W 002°30'3 8.9
2017-Sep-18 04:30N 47°17' W 002°34'4 7.7
2017-Sep-18 03:59N 47°21' W 002°31'0 0.3
2017-Sep-18 03:30N 47°21' W 002°31'0 0.0
2017-Sep-18 03:00N 47°21' W 002°31'0 0.0
2017-Sep-18 02:29N 47°21' W 002°31'0 0.0
2017-Sep-18 02:00N 47°21' W 002°31'0 0.0
2017-Sep-18 01:30N 47°21' W 002°31'0 0.0
2017-Sep-18 00:59N 47°21' W 002°31'0 0.0
2017-Sep-18 00:30N 47°21' W 002°31'0 0.0
2017-Sep-18 00:00N 47°21' W 002°31'0 0.0
2017-Sep-17 23:30N 47°21' W 002°31'0 0.0
2017-Sep-17 23:00N 47°21' W 002°31'0 0.0
2017-Sep-17 22:30N 47°21' W 002°31'0 0.0
2017-Sep-17 22:00N 47°21' W 002°31'0 0.0
2017-Sep-17 21:29N 47°21' W 002°31'0 0.0
2017-Sep-17 21:00N 47°21' W 002°31'0 0.0
2017-Sep-17 20:30N 47°21' W 002°31'0 0.0
2017-Sep-17 19:43N 47°21' W 002°31'0 0.0
2017-Sep-17 19:29N 47°21' W 002°31'0 0.0
2017-Sep-17 19:00N 47°21' W 002°31'0 0.1
2017-Sep-17 18:19N 47°21' W 002°31'1 1.8
2017-Sep-17 17:59N 47°20' W 002°31'3 5.8
2017-Sep-17 17:30N 47°18' W 002°34'10 7.6
2017-Sep-17 16:13N 47°13' W 002°22'1 1.6
2017-Sep-17 15:37N 47°13' W 002°21'1 4.6
2017-Sep-17 15:30N 47°12' W 002°20'0 0.5
2017-Sep-17 15:00N 47°12' W 002°21'1 2.2
2017-Sep-17 14:25N 47°13' W 002°19'2 3.1
2017-Sep-17 13:44N 47°10' W 002°19'5 2.6
2017-Sep-17 11:56N 47°09' W 002°25'6 1.0
2017-Sep-17 05:43N 47°03' W 002°27'2 8.9
2017-Sep-17 05:29N 47°05' W 002°28'9 9.3
2017-Sep-17 04:32N 47°13' W 002°33'5 9.5
2017-Sep-17 04:03N 47°18' W 002°35'0 9.6
2017-Sep-17 04:00N 47°18' W 002°35'  
2017-Sep-14 22:39N 47°21' W 002°31'0 0.0
2017-Sep-14 22:11N 47°21' W 002°31'0 0.0
2017-Sep-14 21:52N 47°21' W 002°31'0 0.0
2017-Sep-14 21:15N 47°21' W 002°31'0 0.0
2017-Sep-14 21:00N 47°21' W 002°31'0 0.0
2017-Sep-14 20:29N 47°21' W 002°31'1 1.9
2017-Sep-14 20:00N 47°20' W 002°32'2 4.2
2017-Sep-14 19:30N 47°19' W 002°34'14 1.6
2017-Sep-14 10:46N 47°11' W 002°17'1 1.8
2017-Sep-14 10:28N 47°12' W 002°17'3 2.3
2017-Sep-14 09:19N 47°09' W 002°17'2 4.7
2017-Sep-14 08:56N 47°10' W 002°19'0 0.8
2017-Sep-14 08:19N 47°10' W 002°19'0 1.3
2017-Sep-14 07:58N 47°10' W 002°19'2 3.7
2017-Sep-14 07:29N 47°12' W 002°17'2 3.2
2017-Sep-14 06:58N 47°12' W 002°20'2 5.2
2017-Sep-14 06:30N 47°14' W 002°22'9 8.8
2017-Sep-14 05:29N 47°18' W 002°34'4 7.4
2017-Sep-14 04:55N 47°21' W 002°31'0 0.0
2017-Sep-14 04:29N 47°21' W 002°31'0 0.0
2017-Sep-14 03:57N 47°21' W 002°31'0 0.0
2017-Sep-14 02:55N 47°21' W 002°31'0 0.0
2017-Sep-14 02:30N 47°21' W 002°31'0 0.0
2017-Sep-14 02:00N 47°21' W 002°31'0 0.0
2017-Sep-14 01:25N 47°21' W 002°31'0 0.0
2017-Sep-14 01:00N 47°21' W 002°31'0 0.0
2017-Sep-14 00:29N 47°21' W 002°31'0 0.0
2017-Sep-13 23:57N 47°21' W 002°31'0 0.0
2017-Sep-13 23:29N 47°21' W 002°31'0 0.0
2017-Sep-13 21:18N 47°21' W 002°31'0 0.0
2017-Sep-13 20:58N 47°21' W 002°31'0 0.0
2017-Sep-13 19:43N 47°21' W 002°31'0 0.0
2017-Sep-13 17:35N 47°21' W 002°31'1 6.1
2017-Sep-13 17:30N 47°20' W 002°31'4 8.6
2017-Sep-13 17:00N 47°17' W 002°35'11 3.6
2017-Sep-13 13:57N 47°09' W 002°24'3 5.1
2017-Sep-13 13:17N 47°12' W 002°23'2 1.5
2017-Sep-13 11:48N 47°11' W 002°20'1 4.1
2017-Sep-13 11:29N 47°12' W 002°22'1 0.6
2017-Sep-13 09:33N 47°11' W 002°21'1 1.4
2017-Sep-13 08:35N 47°12' W 002°19'0 1.3
2017-Sep-13 08:30N 47°12' W 002°19'1 2.8
2017-Sep-13 07:59N 47°12' W 002°21'0 0.4
2017-Sep-13 07:03N 47°12' W 002°21'0 4.1
2017-Sep-13 06:57N 47°12' W 002°20'1 3.0
2017-Sep-13 06:29N 47°12' W 002°18'2 4.7
2017-Sep-13 05:57N 47°12' W 002°22'10 8.0
2017-Sep-13 04:46N 47°17' W 002°34'4 6.2
2017-Sep-13 04:04N 47°21' W 002°31'0 2.3
2017-Sep-13 03:59N 47°21' W 002°31'0 0.0
2017-Sep-13 03:30N 47°21' W 002°31'0 0.0
2017-Sep-13 02:59N 47°21' W 002°31'0 0.0
2017-Sep-13 02:29N 47°21' W 002°31'0 0.0
2017-Sep-13 01:24N 47°21' W 002°31'0 0.0
2017-Sep-13 00:57N 47°21' W 002°31'0 0.0
2017-Sep-12 19:53N 47°21' W 002°31'0 0.0
2017-Sep-12 19:29N 47°21' W 002°31'0 0.0
2017-Sep-12 18:59N 47°21' W 002°31'0 0.0
2017-Sep-12 18:29N 47°21' W 002°31'0 0.0
2017-Sep-12 18:00N 47°21' W 002°31'0 0.1
2017-Sep-12 15:36N 47°21' W 002°31'1 8.9
2017-Sep-12 15:30N 47°20' W 002°32'4 6.6
2017-Sep-12 14:58N 47°17' W 002°31'8 1.1
2017-Sep-12 07:33N 47°10' W 002°25'0 1.0
2017-Sep-12 07:27N 47°10' W 002°25'0 0.6
2017-Sep-12 07:00N 47°10' W 002°25'1 1.8
2017-Sep-12 06:14N 47°10' W 002°23'  
Track history (hours):
 
Tides and Currents Weather Stations Pressure Air Temp Water Temp Dewpoint Dewpoint Depression Visibility Wind Speed Wind Dir Waves Ship Positions

F/V Colombine

Last reported at 2017-Sep-21 16:12 UTC. Time now 2017-Sep-22 19:15 UTC.
Position N 47°21' W 002°31'.

Length 22 m.

Type: Fishing. MMSI: 227866000.

Date/timePositionNaut miles runAvg speedWind from/ knotsBaromVisibWave heightAir tempDewpointWater temp
2017-Sep-21 16:12N 47°21' W 002°31'0 0.2
2017-Sep-21 14:04N 47°21' W 002°31'3 9.3
2017-Sep-21 13:43N 47°22' W 002°35'2 1.2
2017-Sep-21 12:18N 47°20' W 002°35'1 0.5
2017-Sep-21 10:28N 47°19' W 002°35'2 5.0
2017-Sep-21 10:00N 47°17' W 002°35'10 3.5
2017-Sep-21 07:13N 47°08' W 002°29'1 2.7
2017-Sep-21 06:45N 47°08' W 002°27'2 6.1
2017-Sep-21 06:30N 47°08' W 002°25'3 6.1
2017-Sep-21 06:00N 47°11' W 002°24'3 6.8
2017-Sep-21 05:30N 47°13' W 002°28'4 7.2
2017-Sep-21 05:00N 47°16' W 002°32'3 6.3
2017-Sep-21 04:29N 47°18' W 002°34'4 7.3
2017-Sep-21 04:00N 47°21' W 002°31'0 0.0
2017-Sep-21 03:26N 47°21' W 002°31'0 0.0
2017-Sep-21 02:49N 47°21' W 002°31'0 0.0
2017-Sep-21 02:30N 47°21' W 002°31'0 0.0
2017-Sep-21 01:54N 47°21' W 002°31'0 0.0
2017-Sep-21 01:27N 47°21' W 002°31'0 0.0
2017-Sep-21 00:57N 47°21' W 002°31'0 0.0
2017-Sep-20 19:17N 47°21' W 002°31'0 0.4
2017-Sep-20 19:00N 47°21' W 002°31'0 0.0
2017-Sep-20 18:30N 47°21' W 002°31'0 0.0
2017-Sep-20 17:59N 47°21' W 002°31'3 6.7
2017-Sep-20 17:30N 47°18' W 002°34'4 7.4
2017-Sep-20 17:00N 47°16' W 002°30'2 3.8
2017-Sep-20 16:25N 47°15' W 002°27'4 4.1
2017-Sep-20 15:26N 47°13' W 002°22'1 2.0
2017-Sep-20 14:54N 47°12' W 002°21'2 2.2
2017-Sep-20 14:00N 47°12' W 002°18'2 3.6
2017-Sep-20 13:20N 47°13' W 002°21'1 2.2
2017-Sep-20 12:59N 47°12' W 002°21'0 0.8
2017-Sep-20 12:29N 47°12' W 002°21'0 0.5
2017-Sep-20 11:59N 47°12' W 002°21'2 3.7
2017-Sep-20 11:27N 47°12' W 002°18'2 4.4
2017-Sep-20 11:00N 47°10' W 002°20'3 5.5
2017-Sep-20 10:30N 47°08' W 002°23'2 4.0
2017-Sep-20 09:59N 47°09' W 002°25'1 1.2
2017-Sep-20 09:30N 47°09' W 002°25'1 1.2
2017-Sep-20 08:53N 47°08' W 002°26'2 4.1
2017-Sep-20 08:30N 47°09' W 002°24'1 2.2
2017-Sep-20 08:01N 47°10' W 002°26'0 0.2
2017-Sep-20 07:30N 47°10' W 002°26'2 2.7
2017-Sep-20 06:48N 47°08' W 002°27'3 5.0
2017-Sep-20 06:17N 47°07' W 002°23'1 5.3
2017-Sep-20 06:00N 47°08' W 002°22'4 7.5
2017-Sep-20 05:29N 47°11' W 002°25'9 8.7
2017-Sep-20 04:28N 47°18' W 002°34'4 0.7
2017-Sep-19 22:45N 47°21' W 002°31'0 0.0
2017-Sep-19 22:19N 47°21' W 002°31'0 0.0
2017-Sep-19 21:59N 47°21' W 002°31'0 0.0
2017-Sep-19 21:09N 47°21' W 002°31'0 0.0
2017-Sep-19 20:58N 47°21' W 002°31'0 0.0
2017-Sep-19 20:29N 47°21' W 002°31'0 0.0
2017-Sep-19 19:09N 47°21' W 002°31'1 6.7
2017-Sep-19 19:00N 47°20' W 002°32'3 6.0
2017-Sep-19 18:30N 47°17' W 002°34'2 3.7
2017-Sep-19 17:57N 47°16' W 002°32'2 3.1
2017-Sep-19 17:12N 47°16' W 002°35'2 6.5
2017-Sep-19 16:56N 47°15' W 002°37'21 1.4
2017-Sep-19 01:52N 47°02' W 003°01'11 2.4
2017-Sep-18 21:30N 47°12' W 002°55'2 4.0
2017-Sep-18 20:59N 47°13' W 002°53'2 4.3
2017-Sep-18 20:30N 47°15' W 002°51'7 6.8
2017-Sep-18 19:30N 47°18' W 002°42'8 9.2
2017-Sep-18 18:38N 47°21' W 002°31'0 0.6
2017-Sep-18 18:28N 47°21' W 002°31'0 0.1
2017-Sep-18 18:00N 47°21' W 002°31'0 0.0
2017-Sep-18 16:10N 47°21' W 002°31'0 0.0
2017-Sep-18 15:51N 47°21' W 002°31'0 0.0
2017-Sep-18 15:29N 47°21' W 002°31'1 1.3
2017-Sep-18 15:00N 47°20' W 002°31'4 7.7
2017-Sep-18 14:30N 47°18' W 002°35'16 2.7
2017-Sep-18 08:43N 47°04' W 002°23'2 7.2
2017-Sep-18 08:30N 47°06' W 002°23'4 8.4
2017-Sep-18 08:00N 47°09' W 002°26'4 7.2
2017-Sep-18 07:30N 47°12' W 002°22'2 5.0
2017-Sep-18 07:00N 47°13' W 002°19'1 1.4
2017-Sep-18 06:30N 47°12' W 002°18'2 3.3
2017-Sep-18 06:00N 47°12' W 002°21'2 4.0
2017-Sep-18 05:30N 47°14' W 002°23'5 8.0
2017-Sep-18 04:52N 47°16' W 002°30'3 8.9
2017-Sep-18 04:30N 47°17' W 002°34'4 7.7
2017-Sep-18 03:59N 47°21' W 002°31'0 0.3
2017-Sep-18 03:30N 47°21' W 002°31'0 0.0
2017-Sep-18 03:00N 47°21' W 002°31'0 0.0
2017-Sep-18 02:29N 47°21' W 002°31'0 0.0
2017-Sep-18 02:00N 47°21' W 002°31'0 0.0
2017-Sep-18 01:30N 47°21' W 002°31'0 0.0
2017-Sep-18 00:59N 47°21' W 002°31'0 0.0
2017-Sep-18 00:30N 47°21' W 002°31'0 0.0
2017-Sep-18 00:00N 47°21' W 002°31'0 0.0
2017-Sep-17 23:30N 47°21' W 002°31'0 0.0
2017-Sep-17 23:00N 47°21' W 002°31'0 0.0
2017-Sep-17 22:30N 47°21' W 002°31'0 0.0
2017-Sep-17 22:00N 47°21' W 002°31'0 0.0
2017-Sep-17 21:29N 47°21' W 002°31'0 0.0
2017-Sep-17 21:00N 47°21' W 002°31'0 0.0
2017-Sep-17 20:30N 47°21' W 002°31'0 0.0
2017-Sep-17 19:43N 47°21' W 002°31'0 0.0
2017-Sep-17 19:29N 47°21' W 002°31'0 0.0
2017-Sep-17 19:00N 47°21' W 002°31'0 0.1
2017-Sep-17 18:19N 47°21' W 002°31'1 1.8
2017-Sep-17 17:59N 47°20' W 002°31'3 5.8
2017-Sep-17 17:30N 47°18' W 002°34'10 7.6
2017-Sep-17 16:13N 47°13' W 002°22'1 1.6
2017-Sep-17 15:37N 47°13' W 002°21'1 4.6
2017-Sep-17 15:30N 47°12' W 002°20'0 0.5
2017-Sep-17 15:00N 47°12' W 002°21'1 2.2
2017-Sep-17 14:25N 47°13' W 002°19'2 3.1
2017-Sep-17 13:44N 47°10' W 002°19'5 2.6
2017-Sep-17 11:56N 47°09' W 002°25'6 1.0
2017-Sep-17 05:43N 47°03' W 002°27'2 8.9
2017-Sep-17 05:29N 47°05' W 002°28'9 9.3
2017-Sep-17 04:32N 47°13' W 002°33'5 9.5
2017-Sep-17 04:03N 47°18' W 002°35'0 9.6
2017-Sep-17 04:00N 47°18' W 002°35'  
2017-Sep-14 22:39N 47°21' W 002°31'0 0.0
2017-Sep-14 22:11N 47°21' W 002°31'0 0.0
2017-Sep-14 21:52N 47°21' W 002°31'0 0.0
2017-Sep-14 21:15N 47°21' W 002°31'0 0.0
2017-Sep-14 21:00N 47°21' W 002°31'0 0.0
2017-Sep-14 20:29N 47°21' W 002°31'1 1.9
2017-Sep-14 20:00N 47°20' W 002°32'2 4.2
2017-Sep-14 19:30N 47°19' W 002°34'14 1.6
2017-Sep-14 10:46N 47°11' W 002°17'1 1.8
2017-Sep-14 10:28N 47°12' W 002°17'3 2.3
2017-Sep-14 09:19N 47°09' W 002°17'2 4.7
2017-Sep-14 08:56N 47°10' W 002°19'0 0.8
2017-Sep-14 08:19N 47°10' W 002°19'0 1.3
2017-Sep-14 07:58N 47°10' W 002°19'2 3.7
2017-Sep-14 07:29N 47°12' W 002°17'2 3.2
2017-Sep-14 06:58N 47°12' W 002°20'2 5.2
2017-Sep-14 06:30N 47°14' W 002°22'9 8.8
2017-Sep-14 05:29N 47°18' W 002°34'4 7.4
2017-Sep-14 04:55N 47°21' W 002°31'0 0.0
2017-Sep-14 04:29N 47°21' W 002°31'0 0.0
2017-Sep-14 03:57N 47°21' W 002°31'0 0.0
2017-Sep-14 02:55N 47°21' W 002°31'0 0.0
2017-Sep-14 02:30N 47°21' W 002°31'0 0.0
2017-Sep-14 02:00N 47°21' W 002°31'0 0.0
2017-Sep-14 01:25N 47°21' W 002°31'0 0.0
2017-Sep-14 01:00N 47°21' W 002°31'0 0.0
2017-Sep-14 00:29N 47°21' W 002°31'0 0.0
2017-Sep-13 23:57N 47°21' W 002°31'0 0.0
2017-Sep-13 23:29N 47°21' W 002°31'0 0.0
2017-Sep-13 21:18N 47°21' W 002°31'0 0.0
2017-Sep-13 20:58N 47°21' W 002°31'0 0.0
2017-Sep-13 19:43N 47°21' W 002°31'0 0.0
2017-Sep-13 17:35N 47°21' W 002°31'1 6.1
2017-Sep-13 17:30N 47°20' W 002°31'4 8.6
2017-Sep-13 17:00N 47°17' W 002°35'11 3.6
2017-Sep-13 13:57N 47°09' W 002°24'3 5.1
2017-Sep-13 13:17N 47°12' W 002°23'2 1.5
2017-Sep-13 11:48N 47°11' W 002°20'1 4.1
2017-Sep-13 11:29N 47°12' W 002°22'1 0.6
2017-Sep-13 09:33N 47°11' W 002°21'1 1.4
2017-Sep-13 08:35N 47°12' W 002°19'0 1.3
2017-Sep-13 08:30N 47°12' W 002°19'1 2.8
2017-Sep-13 07:59N 47°12' W 002°21'0 0.4
2017-Sep-13 07:03N 47°12' W 002°21'0 4.1
2017-Sep-13 06:57N 47°12' W 002°20'1 3.0
2017-Sep-13 06:29N 47°12' W 002°18'2 4.7
2017-Sep-13 05:57N 47°12' W 002°22'10 8.0
2017-Sep-13 04:46N 47°17' W 002°34'4 6.2
2017-Sep-13 04:04N 47°21' W 002°31'0 2.3
2017-Sep-13 03:59N 47°21' W 002°31'0 0.0
2017-Sep-13 03:30N 47°21' W 002°31'0 0.0
2017-Sep-13 02:59N 47°21' W 002°31'0 0.0
2017-Sep-13 02:29N 47°21' W 002°31'0 0.0
2017-Sep-13 01:24N 47°21' W 002°31'0 0.0
2017-Sep-13 00:57N 47°21' W 002°31'0 0.0
2017-Sep-12 19:53N 47°21' W 002°31'0 0.0
2017-Sep-12 19:29N 47°21' W 002°31'0 0.0
2017-Sep-12 18:59N 47°21' W 002°31'0 0.0
2017-Sep-12 18:29N 47°21' W 002°31'0 0.0
2017-Sep-12 18:00N 47°21' W 002°31'0 0.1
2017-Sep-12 15:36N 47°21' W 002°31'1 8.9
2017-Sep-12 15:30N 47°20' W 002°32'4 6.6
2017-Sep-12 14:58N 47°17' W 002°31'8 1.1
2017-Sep-12 07:33N 47°10' W 002°25'0 1.0
2017-Sep-12 07:27N 47°10' W 002°25'0 0.6
2017-Sep-12 07:00N 47°10' W 002°25'1 1.8
2017-Sep-12 06:14N 47°10' W 002°23'  

Dump ship's entire track history